Impacts METAR Board
IDs:

KTMB - Miami Exec Arpt, FL, US

Updated at: 2000 UTC 21 Sep 2021
Potential Impact None Slight Moderate High
Time 21/08Z 21/09Z 21/10Z 21/11Z 21/12Z 21/13Z 21/14Z 21/15Z 21/16Z 21/17Z 21/18Z 21/19Z 21/20Z
Temp79 79 79 79 79 82 85 84 85 87 87 88 87
Dewpt75 76 75 76 76 78 77 77 74 76 73 74 73
Altim29.98 29.96 29.97 29.98 29.99 30.02 30.03 30.04 30.05 30.04 30.01 30.00 29.99
VIS10 10 10 10 10 10 10 10 10 10 10 10 10
CIG110 -- -- -- -- -- -- 23 -- -- -- -- --
CoverBKNCLRCLRCLRCLRCLRCLROVCCLRCLRSCTSCTCLR
FltCatVFRVFRVFRVFRVFRVFRVFRMVFRVFRVFRVFRVFRVFR
WX-RA-------------RA--VCTS--VCTS--
WDir35000000601200110160140130
WSpd3 0 0 4 0 0 3 6 0 4 8 7 4
WGst-- -- -- -- -- -- -- -- -- -- -- -- --
Raw hourly METARs
KTMB 210753Z AUTO 35003KT 10SM -RA FEW060 SCT080 BKN110 26/24 A2998 RMK AO2 RAB22 SLP151 P0009 T02610239
KTMB 210853Z AUTO 00000KT 10SM CLR 26/24 A2996 RMK AO2 RAE02 SLP146 P0000 60009 T02610244 58011
KTMB 210953Z AUTO 00000KT 10SM CLR 26/24 A2997 RMK AO2 SLP148 T02610239
KTMB 211053Z AUTO VRB04KT 10SM CLR 26/24 A2998 RMK AO2 SLP152 T02610244
KTMB 211153Z 00000KT 10SM CLR 26/24 A2999 RMK AO2 SLP156 60009 70024 T02610244 10272 20256 53010
KTMB 211253Z 00000KT 10SM CLR 28/26 A3002 RMK AO2 SLP164 T02780256
KTMB 211353Z 06003KT 10SM CLR 29/25 A3003 RMK AO2 LTG DSNT S SLP168 T02940250
KTMB 211453Z 12006KT 10SM -RA BKN023 BKN035 OVC060 29/25 A3004 RMK AO2 RAB30 SLP173 P0000 60000 T02890250 51017
KTMB 211553Z 00000KT 10SM CLR 29/23 A3005 RMK AO2 LTG DSNT W RAE28 SLP175 P0000 T02940233
KTMB 211653Z 11004KT 10SM VCTS CLR 31/24 A3004 RMK AO2 LTG DSNT SE AND W SLP172 T03060244
KTMB 211753Z 16008KT 10SM FEW026 FEW040 SCT060 31/23 A3001 RMK AO2 SLP162 60000 T03060228 10311 20261 58014
KTMB 211853Z 14007KT 10SM VCTS FEW027 SCT033 SCT043 31/23 A3000 RMK AO2 SLP157 T03110233
KTMB 211953Z 13004KT 10SM CLR 31/23 A2999 RMK AO2 LTG DSNT W-NE SLP153 T03060228



Page loaded:  20:07 UTC  |   01:07 PM Pacific  |   02:07 PM Mountain  |   03:07 PM Central  |   04:07 PM Eastern

 

ADVISORIES

FORECASTS

FORECASTS

OBSERVATIONS

USER TOOLS

ABOUT US